Time;durP1;ratioP1;P1;durP2;ratioP2;P2;SDS_P1;SDS_P2;PMS_P1;PMS_P2;Temp;Humidity;BMP_temperature;BMP_pressure;BME280_temperature;BME280_humidity;BME280_pressure;Samples;Min_cycle;Max_cycle;Signal;HPM_P1;HPM_P2
2022/05/31 00:02:23;;;;;;;5.10;4.40;;;;;;;;;;5053660;28;20257;-76
2022/05/31 00:04:51;;;;;;;5.90;4.23;;;;;;;;;;5053938;28;20218;-75
2022/05/31 00:07:19;;;;;;;7.10;4.33;;;;;;;;;;5054250;28;20227;-76
2022/05/31 00:09:47;;;;;;;5.67;4.20;;;;;;;;;;5069084;28;20288;-75
2022/05/31 00:12:16;;;;;;;7.23;4.50;;;;;;;;;;5051958;28;20306;-75
2022/05/31 00:14:43;;;;;;;5.57;4.20;;;;;;;;;;5053266;28;20255;-75
2022/05/31 00:17:10;;;;;;;5.40;4.47;;;;;;;;;;5053313;28;20200;-75
2022/05/31 00:19:38;;;;;;;7.20;4.97;;;;;;;;;;5053563;28;20297;-76
2022/05/31 00:22:08;;;;;;;6.70;4.73;;;;;;;;;;5052284;28;20285;-75
2022/05/31 00:24:35;;;;;;;5.20;4.40;;;;;;;;;;5068160;28;20239;-75
2022/05/31 00:27:04;;;;;;;6.93;4.40;;;;;;;;;;5046080;28;20660;-75
2022/05/31 00:29:33;;;;;;;5.73;4.20;;;;;;;;;;5052090;28;20215;-75
2022/05/31 00:32:00;;;;;;;6.67;4.90;;;;;;;;;;5052862;28;20229;-75
2022/05/31 00:34:28;;;;;;;8.13;4.60;;;;;;;;;;5053082;28;20243;-75
2022/05/31 00:36:57;;;;;;;6.27;4.40;;;;;;;;;;5056391;28;20914;-75
2022/05/31 00:39:24;;;;;;;7.17;4.27;;;;;;;;;;5071277;28;20203;-75
2022/05/31 00:41:59;;;;;;;6.03;4.40;;;;;;;;;;5073100;28;20739;-75
2022/05/31 00:44:27;;;;;;;5.23;4.20;;;;;;;;;;5065986;28;20646;-75
2022/05/31 00:46:58;;;;;;;4.80;4.17;;;;;;;;;;5055086;28;20294;-76
2022/05/31 00:49:27;;;;;;;7.53;4.23;;;;;;;;;;5072799;28;20650;-75
2022/05/31 00:51:57;;;;;;;7.37;4.50;;;;;;;;;;5072781;28;20288;-75
2022/05/31 00:54:25;;;;;;;7.43;4.53;;;;;;;;;;5072794;28;20232;-75
2022/05/31 00:56:53;;;;;;;7.67;4.40;;;;;;;;;;5060962;28;20293;-75
2022/05/31 00:59:21;;;;;;;6.20;5.00;;;;;;;;;;5049589;28;20234;-75
2022/05/31 01:01:51;;;;;;;5.33;4.63;;;;;;;;;;5065795;28;20195;-76
2022/05/31 01:04:21;;;;;;;5.17;4.63;;;;;;;;;;5050275;28;20259;-75
2022/05/31 01:06:48;;;;;;;5.67;4.43;;;;;;;;;;5032656;28;20207;-75
2022/05/31 01:09:16;;;;;;;5.83;3.93;;;;;;;;;;5037002;28;20197;-75
2022/05/31 01:11:44;;;;;;;5.20;4.40;;;;;;;;;;5034626;28;20816;-75
2022/05/31 01:14:13;;;;;;;5.00;3.97;;;;;;;;;;5035073;28;20232;-75
2022/05/31 01:16:53;;;;;;;5.53;4.00;;;;;;;;;;5032173;28;20274;-75
2022/05/31 01:22:04;;;;;;;4.70;4.10;;;;;;;;;;5031137;28;20202;-75
2022/05/31 01:24:32;;;;;;;3.87;3.47;;;;;;;;;;5063448;28;20228;-75
2022/05/31 01:27:02;;;;;;;4.37;3.80;;;;;;;;;;5071892;28;20288;-75
2022/05/31 01:29:31;;;;;;;4.50;4.00;;;;;;;;;;5060709;28;20236;-75
2022/05/31 01:32:00;;;;;;;5.37;3.90;;;;;;;;;;5046207;28;20228;-75
2022/05/31 01:34:30;;;;;;;5.20;3.83;;;;;;;;;;5066975;28;20236;-75
2022/05/31 01:36:58;;;;;;;5.10;3.87;;;;;;;;;;5066094;28;20316;-75
2022/05/31 01:39:30;;;;;;;4.57;4.10;;;;;;;;;;5052226;28;20323;-76
2022/05/31 01:41:59;;;;;;;5.33;4.40;;;;;;;;;;5051030;28;20711;-76
2022/05/31 01:44:29;;;;;;;5.17;3.90;;;;;;;;;;5055389;28;20345;-76
2022/05/31 01:46:57;;;;;;;6.10;4.60;;;;;;;;;;5051406;28;20597;-76
2022/05/31 01:49:25;;;;;;;6.93;4.20;;;;;;;;;;5047171;28;20204;-75
2022/05/31 01:51:53;;;;;;;6.07;4.33;;;;;;;;;;5032055;28;20337;-75
2022/05/31 01:54:20;;;;;;;4.83;4.00;;;;;;;;;;5031879;28;20242;-75
2022/05/31 01:56:52;;;;;;;5.57;4.10;;;;;;;;;;5043847;28;20297;-75
2022/05/31 01:59:19;;;;;;;5.00;4.30;;;;;;;;;;5051155;28;20235;-75
2022/05/31 02:01:47;;;;;;;5.20;4.23;;;;;;;;;;5068872;28;20752;-75
2022/05/31 02:04:16;;;;;;;6.37;4.13;;;;;;;;;;5071623;28;20299;-75
2022/05/31 02:06:43;;;;;;;5.13;4.00;;;;;;;;;;5071630;28;20671;-75
2022/05/31 02:09:11;;;;;;;4.13;3.73;;;;;;;;;;5071574;28;20204;-75
2022/05/31 02:11:39;;;;;;;5.00;3.90;;;;;;;;;;5060663;28;20648;-75
2022/05/31 02:14:09;;;;;;;5.23;4.07;;;;;;;;;;5063720;28;20231;-75
2022/05/31 02:16:36;;;;;;;7.67;5.37;;;;;;;;;;5046025;28;20684;-75
2022/05/31 02:19:25;;;;;;;7.17;5.37;;;;;;;;;;5031610;28;20626;-75
2022/05/31 02:21:54;;;;;;;5.77;4.80;;;;;;;;;;5051626;28;20194;-75
2022/05/31 02:24:21;;;;;;;8.40;4.53;;;;;;;;;;5071256;28;20205;-75
2022/05/31 02:26:49;;;;;;;6.07;4.63;;;;;;;;;;5067015;28;20209;-75
2022/05/31 02:29:18;;;;;;;6.47;4.70;;;;;;;;;;5051095;28;20225;-75
2022/05/31 02:31:46;;;;;;;5.37;4.37;;;;;;;;;;5051348;28;20227;-75
2022/05/31 02:34:15;;;;;;;5.37;4.20;;;;;;;;;;5051422;28;20201;-75
2022/05/31 02:36:42;;;;;;;8.20;4.23;;;;;;;;;;5051276;28;20230;-76
2022/05/31 02:39:10;;;;;;;4.97;4.33;;;;;;;;;;5053201;28;20239;-75
2022/05/31 02:41:37;;;;;;;6.43;4.30;;;;;;;;;;5070352;28;21320;-75
2022/05/31 02:44:05;;;;;;;5.77;4.30;;;;;;;;;;5046004;28;20275;-75
2022/05/31 02:46:33;;;;;;;5.73;4.33;;;;;;;;;;5031168;28;20290;-75
2022/05/31 02:49:01;;;;;;;5.27;4.27;;;;;;;;;;5031353;28;20296;-75
2022/05/31 02:51:28;;;;;;;4.93;4.33;;;;;;;;;;5031318;28;20291;-75
2022/05/31 02:53:55;;;;;;;5.57;4.27;;;;;;;;;;5046822;28;20752;-75
2022/05/31 02:56:22;;;;;;;4.97;4.30;;;;;;;;;;5034928;28;20335;-75
2022/05/31 02:58:50;;;;;;;8.40;4.70;;;;;;;;;;5035079;28;20240;-75
2022/05/31 03:01:21;;;;;;;4.70;4.30;;;;;;;;;;5035192;28;20262;-75
2022/05/31 03:03:50;;;;;;;5.33;4.60;;;;;;;;;;5034287;28;20236;-75
2022/05/31 03:06:17;;;;;;;5.20;4.70;;;;;;;;;;5034585;28;20264;-75
2022/05/31 03:08:44;;;;;;;5.17;4.40;;;;;;;;;;5070016;28;20234;-75
2022/05/31 03:11:14;;;;;;;6.40;4.57;;;;;;;;;;5066676;28;20318;-75
2022/05/31 03:13:42;;;;;;;6.10;4.60;;;;;;;;;;5054315;28;20270;-75
2022/05/31 03:16:09;;;;;;;7.80;4.50;;;;;;;;;;5054718;28;20227;-76
2022/05/31 03:18:39;;;;;;;6.37;4.53;;;;;;;;;;5054499;28;20651;-75
2022/05/31 03:21:10;;;;;;;6.27;4.70;;;;;;;;;;5055169;28;20230;-76
2022/05/31 03:23:39;;;;;;;5.33;4.57;;;;;;;;;;5066075;28;20246;-76
2022/05/31 03:26:08;;;;;;;5.93;5.23;;;;;;;;;;5054060;28;20232;-75
2022/05/31 03:28:36;;;;;;;5.17;4.40;;;;;;;;;;5054703;28;20252;-75
2022/05/31 03:31:03;;;;;;;5.10;4.30;;;;;;;;;;5055879;28;20306;-75
2022/05/31 03:33:31;;;;;;;6.70;4.90;;;;;;;;;;5054049;28;20258;-76
2022/05/31 03:35:58;;;;;;;9.40;5.00;;;;;;;;;;5066903;28;20238;-76
2022/05/31 03:38:27;;;;;;;5.43;4.90;;;;;;;;;;5074110;28;20282;-75
2022/05/31 03:40:57;;;;;;;5.63;4.60;;;;;;;;;;5073934;28;20223;-75
2022/05/31 03:43:25;;;;;;;6.47;4.73;;;;;;;;;;5055492;28;20639;-75
2022/05/31 03:45:52;;;;;;;6.37;4.67;;;;;;;;;;5053996;28;20611;-75
2022/05/31 03:48:19;;;;;;;6.53;4.83;;;;;;;;;;5054146;28;20345;-75
2022/05/31 03:50:46;;;;;;;6.40;5.00;;;;;;;;;;5053460;28;20299;-75
2022/05/31 03:53:14;;;;;;;6.67;5.20;;;;;;;;;;5044243;28;20237;-75
2022/05/31 03:55:44;;;;;;;6.03;4.90;;;;;;;;;;5033979;28;20243;-75
2022/05/31 03:58:11;;;;;;;5.73;4.77;;;;;;;;;;5034236;28;20217;-75
2022/05/31 04:00:39;;;;;;;5.53;4.60;;;;;;;;;;5034120;28;20239;-75
2022/05/31 04:03:06;;;;;;;6.93;5.00;;;;;;;;;;5033734;28;20233;-75
2022/05/31 04:05:33;;;;;;;8.27;5.20;;;;;;;;;;5056255;28;20238;-75
2022/05/31 04:08:03;;;;;;;6.20;4.87;;;;;;;;;;5069492;28;20290;-75
2022/05/31 04:10:30;;;;;;;5.60;4.83;;;;;;;;;;5044195;28;21506;-75
2022/05/31 04:12:59;;;;;;;6.97;4.93;;;;;;;;;;5033601;28;20943;-75
2022/05/31 04:15:26;;;;;;;5.43;4.77;;;;;;;;;;5041042;28;20729;-75
2022/05/31 04:17:54;;;;;;;6.33;4.93;;;;;;;;;;5033992;28;20287;-75
2022/05/31 04:20:21;;;;;;;7.30;5.20;;;;;;;;;;5044193;28;20234;-75
2022/05/31 04:22:48;;;;;;;5.70;4.90;;;;;;;;;;5054557;28;20287;-75
2022/05/31 04:25:16;;;;;;;5.43;4.87;;;;;;;;;;5053823;28;20254;-75
2022/05/31 04:27:43;;;;;;;7.47;5.10;;;;;;;;;;5053673;28;20247;-75
2022/05/31 04:30:12;;;;;;;5.43;4.90;;;;;;;;;;5046981;28;20626;-75
2022/05/31 04:32:39;;;;;;;6.70;4.73;;;;;;;;;;5032974;28;20306;-75
2022/05/31 04:35:07;;;;;;;6.07;4.30;;;;;;;;;;5033582;28;20235;-75
2022/05/31 04:37:34;;;;;;;5.33;4.83;;;;;;;;;;5032419;28;20236;-75
2022/05/31 04:40:02;;;;;;;5.77;4.43;;;;;;;;;;5036383;28;20290;-75
2022/05/31 04:42:29;;;;;;;5.40;4.60;;;;;;;;;;5069160;28;20261;-75
2022/05/31 04:44:56;;;;;;;5.50;4.70;;;;;;;;;;5066834;28;20279;-75
2022/05/31 04:47:25;;;;;;;6.43;4.60;;;;;;;;;;5058424;28;20286;-75
2022/05/31 04:49:52;;;;;;;6.10;4.33;;;;;;;;;;5072005;28;20299;-75
2022/05/31 04:52:19;;;;;;;5.57;4.60;;;;;;;;;;5044962;28;20253;-75
2022/05/31 04:54:47;;;;;;;5.13;4.40;;;;;;;;;;5040756;28;20229;-75
2022/05/31 04:57:14;;;;;;;6.53;4.90;;;;;;;;;;5052659;28;20239;-75
2022/05/31 04:59:41;;;;;;;5.10;4.47;;;;;;;;;;5053107;28;20283;-75
2022/05/31 05:02:08;;;;;;;7.10;4.43;;;;;;;;;;5052631;28;20343;-75
2022/05/31 05:04:37;;;;;;;5.83;4.67;;;;;;;;;;5038800;28;20656;-75
2022/05/31 05:07:04;;;;;;;5.83;4.53;;;;;;;;;;5031961;28;20344;-76
2022/05/31 05:09:31;;;;;;;7.80;4.93;;;;;;;;;;5043768;28;20206;-75
2022/05/31 05:11:59;;;;;;;5.43;4.50;;;;;;;;;;5051787;28;20314;-77
2022/05/31 05:14:26;;;;;;;5.83;4.90;;;;;;;;;;5052756;28;20287;-77
2022/05/31 05:16:54;;;;;;;7.43;4.90;;;;;;;;;;5052008;28;20225;-77
2022/05/31 05:19:21;;;;;;;7.07;4.57;;;;;;;;;;5052248;28;20283;-76
2022/05/31 05:21:50;;;;;;;7.37;4.73;;;;;;;;;;5047007;28;20277;-75
2022/05/31 05:24:17;;;;;;;5.57;5.07;;;;;;;;;;5042160;28;20321;-76
2022/05/31 05:26:44;;;;;;;6.30;5.13;;;;;;;;;;5056324;28;20283;-75
2022/05/31 05:31:57;;;;;;;6.53;4.97;;;;;;;;;;5046635;28;20228;-79
2022/05/31 05:34:25;;;;;;;5.10;4.60;;;;;;;;;;5044509;28;21859;-77
2022/05/31 05:36:53;;;;;;;4.27;3.83;;;;;;;;;;5044580;28;20204;-76
2022/05/31 05:39:20;;;;;;;6.00;4.20;;;;;;;;;;5047436;28;20225;-75
2022/05/31 05:41:49;;;;;;;4.70;4.10;;;;;;;;;;5038006;28;20281;-77
2022/05/31 05:44:20;;;;;;;4.67;4.23;;;;;;;;;;5047274;28;20238;-78
2022/05/31 05:46:47;;;;;;;5.80;4.00;;;;;;;;;;5045072;28;20706;-74
2022/05/31 05:49:14;;;;;;;4.30;3.90;;;;;;;;;;5070730;28;20200;-74
2022/05/31 05:51:42;;;;;;;4.83;4.20;;;;;;;;;;5070734;28;20246;-75
2022/05/31 05:54:10;;;;;;;4.50;3.93;;;;;;;;;;5057071;28;20204;-75
2022/05/31 05:56:37;;;;;;;4.20;3.70;;;;;;;;;;5053795;28;20231;-75
2022/05/31 05:59:06;;;;;;;5.53;3.50;;;;;;;;;;5070995;28;20242;-75
2022/05/31 06:01:34;;;;;;;3.87;3.47;;;;;;;;;;5070578;28;20268;-76
2022/05/31 06:04:03;;;;;;;4.30;3.63;;;;;;;;;;5070253;28;20242;-75
2022/05/31 06:06:32;;;;;;;4.53;3.50;;;;;;;;;;5070798;28;20281;-75
2022/05/31 06:09:02;;;;;;;4.60;3.60;;;;;;;;;;5070937;28;20227;-75
2022/05/31 06:11:34;;;;;;;5.23;3.10;;;;;;;;;;5056367;28;20306;-76
2022/05/31 06:14:04;;;;;;;3.90;3.50;;;;;;;;;;5051270;28;20203;-76
2022/05/31 06:16:33;;;;;;;5.60;3.67;;;;;;;;;;5056041;28;20738;-75
2022/05/31 06:19:03;;;;;;;5.77;3.30;;;;;;;;;;5051335;28;20195;-76
2022/05/31 06:21:30;;;;;;;6.32;3.80;;;;;;;;;;5044217;28;20203;-76
2022/05/31 06:23:58;;;;;;;4.10;3.20;;;;;;;;;;5031762;28;20266;-76
2022/05/31 06:26:25;;;;;;;6.05;4.03;;;;;;;;;;5053617;28;20285;-76
2022/05/31 06:28:54;;;;;;;5.43;3.65;;;;;;;;;;5055225;28;20196;-76
2022/05/31 06:31:21;;;;;;;4.47;3.50;;;;;;;;;;5055357;28;20261;-76
2022/05/31 06:33:48;;;;;;;3.58;3.25;;;;;;;;;;5055054;28;20242;-76
2022/05/31 06:36:15;;;;;;;5.28;3.55;;;;;;;;;;5055491;28;20640;-76
2022/05/31 06:38:43;;;;;;;4.45;3.10;;;;;;;;;;5055628;28;20248;-76
2022/05/31 06:41:10;;;;;;;3.70;3.33;;;;;;;;;;5055140;28;20835;-77
2022/05/31 06:43:38;;;;;;;5.40;3.20;;;;;;;;;;5060656;28;20231;-77
2022/05/31 06:46:07;;;;;;;4.93;3.08;;;;;;;;;;5038022;28;20208;-76
2022/05/31 06:48:34;;;;;;;3.00;2.72;;;;;;;;;;5064080;28;20204;-76
2022/05/31 06:51:04;;;;;;;3.95;3.03;;;;;;;;;;5043656;28;20235;-77
2022/05/31 06:59:01;;;;;;;3.58;2.83;;;;;;;;;;5063290;28;20248;-77
2022/05/31 07:01:32;;;;;;;3.20;2.90;;;;;;;;;;5055405;28;20223;-77
2022/05/31 07:04:00;;;;;;;5.20;2.85;;;;;;;;;;5054477;28;20215;-77
2022/05/31 07:06:28;;;;;;;3.90;2.90;;;;;;;;;;5055221;28;20238;-77
2022/05/31 07:08:55;;;;;;;3.47;2.58;;;;;;;;;;5041791;28;20232;-77
2022/05/31 07:11:22;;;;;;;3.85;3.03;;;;;;;;;;5034945;28;20242;-77
2022/05/31 07:13:49;;;;;;;2.90;2.63;;;;;;;;;;5034708;28;20287;-77
2022/05/31 07:16:17;;;;;;;3.03;2.72;;;;;;;;;;5039000;28;20299;-77
2022/05/31 07:18:46;;;;;;;2.53;2.33;;;;;;;;;;5054423;28;20685;-77
2022/05/31 07:21:13;;;;;;;3.00;2.50;;;;;;;;;;5054137;28;20238;-77
2022/05/31 07:23:40;;;;;;;4.00;2.70;;;;;;;;;;5054695;28;20231;-76
2022/05/31 07:26:08;;;;;;;3.70;2.22;;;;;;;;;;5054884;28;20246;-77
2022/05/31 07:28:35;;;;;;;5.05;2.33;;;;;;;;;;5039277;28;20279;-77
2022/05/31 07:31:02;;;;;;;3.42;2.28;;;;;;;;;;5034600;28;20232;-78
2022/05/31 07:33:29;;;;;;;3.97;2.30;;;;;;;;;;5034322;28;20263;-77
2022/05/31 07:35:58;;;;;;;2.55;1.90;;;;;;;;;;5034570;28;20204;-77
2022/05/31 07:38:26;;;;;;;3.00;2.28;;;;;;;;;;5052731;28;20199;-77
2022/05/31 07:40:54;;;;;;;2.95;2.10;;;;;;;;;;5053398;28;20253;-77
2022/05/31 07:43:21;;;;;;;2.85;2.20;;;;;;;;;;5054466;28;20199;-77
2022/05/31 07:45:48;;;;;;;4.28;2.25;;;;;;;;;;5053722;28;20646;-77
2022/05/31 07:48:15;;;;;;;2.60;1.65;;;;;;;;;;5054215;28;20250;-77
2022/05/31 07:50:42;;;;;;;2.72;1.90;;;;;;;;;;5067941;28;20282;-77
2022/05/31 07:53:11;;;;;;;4.43;1.95;;;;;;;;;;5070258;28;20310;-78
2022/05/31 07:55:38;;;;;;;3.35;1.60;;;;;;;;;;5054541;28;20238;-77
2022/05/31 08:00:50;;;;;;;2.90;1.77;;;;;;;;;;5053763;28;20254;-77
2022/05/31 08:03:17;;;;;;;2.65;1.70;;;;;;;;;;5054264;28;20200;-77
2022/05/31 08:05:45;;;;;;;2.75;1.70;;;;;;;;;;5039104;28;20231;-77
2022/05/31 08:08:13;;;;;;;2.92;1.80;;;;;;;;;;5051454;28;20582;-78
2022/05/31 08:10:41;;;;;;;3.30;1.77;;;;;;;;;;5033911;28;20291;-77
2022/05/31 08:13:08;;;;;;;4.05;1.45;;;;;;;;;;5033454;28;20259;-77
2022/05/31 08:15:35;;;;;;;3.05;1.50;;;;;;;;;;5033776;28;20247;-78
2022/05/31 08:18:03;;;;;;;2.65;1.58;;;;;;;;;;5033664;28;20292;-78
2022/05/31 08:20:30;;;;;;;3.28;1.80;;;;;;;;;;5048188;28;20234;-78
2022/05/31 08:22:57;;;;;;;3.75;1.58;;;;;;;;;;5053643;28;20196;-77
2022/05/31 08:25:26;;;;;;;2.72;1.80;;;;;;;;;;5053420;28;20235;-78
2022/05/31 08:27:53;;;;;;;3.03;1.52;;;;;;;;;;5053559;28;20286;-78
2022/05/31 08:30:20;;;;;;;1.73;1.38;;;;;;;;;;5053166;28;20286;-78
2022/05/31 08:32:47;;;;;;;4.72;1.83;;;;;;;;;;5053499;28;20259;-78
2022/05/31 08:35:15;;;;;;;2.40;1.50;;;;;;;;;;5063825;28;20203;-78
2022/05/31 08:37:42;;;;;;;2.92;1.17;;;;;;;;;;5073543;28;20239;-78
2022/05/31 08:40:10;;;;;;;3.00;1.65;;;;;;;;;;5073045;28;20296;-78
2022/05/31 08:42:48;;;;;;;3.17;1.50;;;;;;;;;;5073187;28;20226;-78
2022/05/31 08:45:20;;;;;;;1.48;1.20;;;;;;;;;;5058982;28;20714;-79
2022/05/31 08:47:49;;;;;;;2.85;1.27;;;;;;;;;;5053121;28;20203;-78
2022/05/31 08:53:12;;;;;;;2.35;1.63;;;;;;;;;;5052935;28;20358;-78
2022/05/31 08:58:32;;;;;;;3.60;1.10;;;;;;;;;;5071876;28;20198;-78
2022/05/31 09:01:00;;;;;;;3.25;1.20;;;;;;;;;;5072449;28;20551;-79
2022/05/31 09:03:30;;;;;;;3.35;1.40;;;;;;;;;;5071708;28;20210;-78
2022/05/31 09:05:59;;;;;;;4.43;1.15;;;;;;;;;;5072525;28;20314;-78
2022/05/31 09:08:29;;;;;;;2.08;1.20;;;;;;;;;;5072137;28;20294;-78
2022/05/31 09:11:02;;;;;;;2.08;0.68;;;;;;;;;;5056611;28;20207;-78
2022/05/31 09:13:34;;;;;;;1.92;0.52;;;;;;;;;;5051709;28;20228;-78
2022/05/31 09:16:04;;;;;;;4.03;0.90;;;;;;;;;;5059231;28;20262;-78
2022/05/31 09:18:38;;;;;;;0.98;0.70;;;;;;;;;;5035101;28;20228;-78
2022/05/31 09:21:08;;;;;;;1.20;0.80;;;;;;;;;;5035633;28;20195;-78
2022/05/31 09:23:37;;;;;;;1.45;0.70;;;;;;;;;;5052227;28;20196;-76
2022/05/31 09:26:10;;;;;;;10.48;1.65;;;;;;;;;;5051582;28;20660;-78
2022/05/31 09:28:44;;;;;;;3.83;1.10;;;;;;;;;;5033092;28;20224;-78
2022/05/31 09:31:16;;;;;;;1.30;0.75;;;;;;;;;;5032362;28;20236;-78
2022/05/31 09:33:50;;;;;;;0.75;0.60;;;;;;;;;;5032038;28;20715;-78
2022/05/31 09:36:23;;;;;;;1.27;0.80;;;;;;;;;;5032402;28;20248;-78
2022/05/31 09:39:11;;;;;;;1.65;0.75;;;;;;;;;;5032215;28;20743;-78
2022/05/31 09:41:40;;;;;;;1.02;0.70;;;;;;;;;;5031729;28;20258;-78
2022/05/31 09:44:13;;;;;;;1.20;0.70;;;;;;;;;;5032035;28;20712;-78
2022/05/31 09:46:42;;;;;;;1.90;0.90;;;;;;;;;;5035510;28;20274;-79
2022/05/31 09:49:16;;;;;;;2.28;0.75;;;;;;;;;;5052117;28;20277;-78
2022/05/31 09:51:45;;;;;;;2.15;0.75;;;;;;;;;;5057028;28;20569;-79
2022/05/31 09:57:06;;;;;;;1.42;0.68;;;;;;;;;;5048693;28;20253;-79
2022/05/31 09:59:37;;;;;;;1.08;0.63;;;;;;;;;;5040738;28;20195;-78
2022/05/31 10:02:14;;;;;;;1.73;0.70;;;;;;;;;;5031129;28;20204;-79
2022/05/31 10:04:41;;;;;;;0.82;0.60;;;;;;;;;;5031972;28;20283;-79
2022/05/31 10:07:10;;;;;;;1.40;0.70;;;;;;;;;;5053186;28;20198;-79
2022/05/31 10:09:37;;;;;;;2.65;0.80;;;;;;;;;;5053550;28;20284;-79
2022/05/31 10:12:07;;;;;;;1.40;0.80;;;;;;;;;;5054993;28;20235;-79
2022/05/31 10:14:37;;;;;;;1.40;0.68;;;;;;;;;;5071917;28;20199;-79
2022/05/31 10:17:15;;;;;;;2.17;0.90;;;;;;;;;;5053471;28;20204;-78
2022/05/31 10:19:42;;;;;;;1.77;0.80;;;;;;;;;;5033145;28;20283;-78
2022/05/31 10:22:17;;;;;;;1.50;0.90;;;;;;;;;;5042389;28;20279;-79
2022/05/31 10:24:44;;;;;;;2.58;1.05;;;;;;;;;;5031556;28;20302;-77
2022/05/31 10:27:12;;;;;;;1.55;0.90;;;;;;;;;;5050734;28;20231;-78
2022/05/31 10:29:43;;;;;;;3.58;1.05;;;;;;;;;;5031412;28;20279;-78
2022/05/31 10:32:24;;;;;;;1.70;0.90;;;;;;;;;;5031588;28;20232;-78
2022/05/31 10:35:05;;;;;;;1.67;0.88;;;;;;;;;;5031459;28;20258;-79
2022/05/31 10:37:32;;;;;;;1.20;0.60;;;;;;;;;;5031738;28;20204;-78
2022/05/31 10:40:01;;;;;;;1.48;0.70;;;;;;;;;;5041090;28;20236;-78
2022/05/31 10:42:28;;;;;;;1.70;0.80;;;;;;;;;;5065869;28;20654;-78
2022/05/31 10:45:02;;;;;;;1.35;0.80;;;;;;;;;;5060355;28;20239;-78
2022/05/31 10:47:29;;;;;;;2.13;0.75;;;;;;;;;;5051552;28;20290;-79
2022/05/31 10:49:56;;;;;;;1.05;0.60;;;;;;;;;;5051351;28;20709;-78
2022/05/31 10:52:27;;;;;;;1.83;0.60;;;;;;;;;;5057747;28;20230;-78
2022/05/31 10:55:05;;;;;;;1.00;0.60;;;;;;;;;;5034879;28;20252;-78
2022/05/31 10:57:48;;;;;;;0.77;0.50;;;;;;;;;;5031141;28;20265;-77
2022/05/31 11:00:20;;;;;;;1.13;0.70;;;;;;;;;;5047061;28;20207;-78
2022/05/31 11:03:05;;;;;;;1.15;0.73;;;;;;;;;;5045148;28;20232;-78
2022/05/31 11:05:38;;;;;;;1.20;0.77;;;;;;;;;;5037902;28;20296;-78
2022/05/31 11:13:53;;;;;;;0.98;0.70;;;;;;;;;;5005737;28;20232;-78
2022/05/31 11:16:29;;;;;;;1.38;0.80;;;;;;;;;;4992927;28;20202;-78
2022/05/31 11:19:04;;;;;;;0.82;0.50;;;;;;;;;;4992974;28;20304;-77
2022/05/31 11:21:39;;;;;;;1.10;0.70;;;;;;;;;;4993292;28;20297;-78
2022/05/31 11:24:12;;;;;;;1.75;0.60;;;;;;;;;;4992753;28;20633;-78
2022/05/31 11:26:55;;;;;;;1.30;0.68;;;;;;;;;;4993102;28;20289;-78
2022/05/31 11:29:31;;;;;;;1.10;0.70;;;;;;;;;;4992228;28;20290;-78
2022/05/31 11:32:04;;;;;;;2.05;0.98;;;;;;;;;;4992390;28;20260;-78
2022/05/31 11:34:41;;;;;;;1.48;0.60;;;;;;;;;;4992498;28;20345;-78
2022/05/31 11:37:26;;;;;;;5.90;0.88;;;;;;;;;;4992708;28;20213;-78
2022/05/31 11:40:04;;;;;;;2.15;0.77;;;;;;;;;;4992954;28;20292;-76
2022/05/31 11:42:44;;;;;;;1.75;0.90;;;;;;;;;;4992609;28;20288;-79
2022/05/31 11:45:16;;;;;;;1.70;0.80;;;;;;;;;;4992829;28;20329;-78
2022/05/31 11:47:58;;;;;;;2.13;0.80;;;;;;;;;;5028579;28;20281;-78
2022/05/31 11:50:31;;;;;;;1.60;0.70;;;;;;;;;;5064947;28;20203;-78
2022/05/31 11:53:05;;;;;;;4.20;1.02;;;;;;;;;;5052903;28;20216;-78
2022/05/31 11:55:34;;;;;;;1.10;0.80;;;;;;;;;;5053898;28;20265;-78
2022/05/31 11:58:15;;;;;;;2.42;0.80;;;;;;;;;;5054254;28;20296;-78
2022/05/31 12:00:45;;;;;;;2.58;0.70;;;;;;;;;;5054451;28;20842;-78
2022/05/31 12:03:15;;;;;;;1.35;0.80;;;;;;;;;;5053526;28;20279;-78
2022/05/31 12:05:45;;;;;;;1.10;0.60;;;;;;;;;;5063530;28;20282;-78
2022/05/31 12:08:16;;;;;;;1.90;0.77;;;;;;;;;;5050383;28;20234;-78
2022/05/31 12:10:45;;;;;;;3.90;0.93;;;;;;;;;;5056593;28;20191;-78
2022/05/31 12:13:15;;;;;;;2.75;0.77;;;;;;;;;;5073665;28;20306;-77
2022/05/31 12:15:43;;;;;;;2.13;1.40;;;;;;;;;;5063449;28;20196;-78
2022/05/31 12:18:15;;;;;;;1.85;1.20;;;;;;;;;;5053457;28;20286;-78
2022/05/31 12:20:46;;;;;;;3.75;1.20;;;;;;;;;;5053523;28;20231;-78
2022/05/31 12:23:17;;;;;;;4.28;2.15;;;;;;;;;;5053678;28;20204;-78
2022/05/31 12:25:45;;;;;;;3.88;2.70;;;;;;;;;;5055796;28;20227;-78
2022/05/31 12:28:18;;;;;;;3.47;1.90;;;;;;;;;;5073896;28;20331;-78
2022/05/31 12:30:52;;;;;;;1.95;1.20;;;;;;;;;;5073348;28;20268;-77
2022/05/31 12:33:39;;;;;;;0.98;0.88;;;;;;;;;;5061563;28;20211;-78
2022/05/31 12:36:09;;;;;;;3.75;1.60;;;;;;;;;;5051609;28;20200;-78
2022/05/31 12:38:51;;;;;;;2.88;1.15;;;;;;;;;;5047289;28;20291;-78
2022/05/31 12:41:32;;;;;;;1.70;1.10;;;;;;;;;;5033554;28;20287;-78
2022/05/31 12:44:01;;;;;;;2.72;1.10;;;;;;;;;;5034416;28;20319;-78
2022/05/31 12:46:29;;;;;;;2.83;1.00;;;;;;;;;;5053117;28;20287;-78
2022/05/31 12:49:01;;;;;;;2.30;1.20;;;;;;;;;;5045743;28;20279;-78
2022/05/31 12:51:29;;;;;;;2.17;1.10;;;;;;;;;;5051755;28;20227;-78
2022/05/31 12:54:07;;;;;;;2.33;0.93;;;;;;;;;;5052686;28;20630;-78
2022/05/31 12:56:39;;;;;;;1.63;1.00;;;;;;;;;;5052549;28;20234;-78
2022/05/31 12:59:07;;;;;;;3.70;1.30;;;;;;;;;;5052845;28;20204;-78
2022/05/31 13:01:36;;;;;;;3.85;1.10;;;;;;;;;;5052682;28;20204;-78
2022/05/31 13:04:11;;;;;;;2.25;1.30;;;;;;;;;;5052887;28;20223;-78
2022/05/31 13:06:59;;;;;;;2.58;0.93;;;;;;;;;;5047348;28;20239;-78
2022/05/31 13:09:37;;;;;;;3.22;1.10;;;;;;;;;;5032930;28;20272;-77
2022/05/31 13:20:29;;;;;;;4.40;1.33;;;;;;;;;;5032540;28;20257;-78
2022/05/31 13:23:01;;;;;;;3.20;1.00;;;;;;;;;;5032401;28;20300;-78
2022/05/31 13:25:30;;;;;;;3.67;1.35;;;;;;;;;;5032636;28;20265;-78
2022/05/31 13:27:58;;;;;;;1.90;0.90;;;;;;;;;;5049740;28;20227;-78
2022/05/31 13:30:27;;;;;;;3.10;1.02;;;;;;;;;;5052557;28;20235;-77
2022/05/31 13:32:54;;;;;;;3.20;1.00;;;;;;;;;;5051946;28;20239;-78
2022/05/31 13:35:24;;;;;;;1.88;0.90;;;;;;;;;;5063127;28;20636;-77
2022/05/31 13:38:00;;;;;;;5.13;1.20;;;;;;;;;;5052167;28;20235;-77
2022/05/31 13:40:32;;;;;;;2.35;1.00;;;;;;;;;;5052419;28;20314;-78
2022/05/31 13:43:00;;;;;;;1.58;1.00;;;;;;;;;;5051841;28;20254;-78
2022/05/31 13:45:28;;;;;;;2.08;0.93;;;;;;;;;;5037308;28;20232;-78
2022/05/31 13:47:57;;;;;;;1.48;0.98;;;;;;;;;;5031764;28;20481;-78
2022/05/31 13:50:25;;;;;;;2.10;0.90;;;;;;;;;;5032180;28;20295;-78
2022/05/31 13:52:53;;;;;;;2.00;0.90;;;;;;;;;;5031732;28;20283;-78
2022/05/31 13:55:23;;;;;;;2.63;1.00;;;;;;;;;;5031891;28;20252;-78
2022/05/31 13:57:53;;;;;;;3.40;1.00;;;;;;;;;;5037774;28;20288;-78
2022/05/31 14:00:34;;;;;;;1.77;0.88;;;;;;;;;;5052192;28;20230;-78
2022/05/31 14:03:06;;;;;;;1.70;0.68;;;;;;;;;;5038137;28;20196;-78
2022/05/31 14:05:35;;;;;;;2.35;0.95;;;;;;;;;;5031981;28;20279;-78
2022/05/31 14:08:03;;;;;;;1.05;0.82;;;;;;;;;;5035414;28;20208;-78
2022/05/31 14:10:36;;;;;;;2.33;0.90;;;;;;;;;;5038673;28;20246;-78
2022/05/31 14:13:09;;;;;;;1.48;0.90;;;;;;;;;;5031878;28;20285;-78
2022/05/31 14:15:36;;;;;;;2.75;0.90;;;;;;;;;;5033640;28;20224;-78
2022/05/31 14:18:08;;;;;;;1.50;0.98;;;;;;;;;;5032145;28;20224;-78
2022/05/31 14:20:36;;;;;;;1.42;0.90;;;;;;;;;;5031724;28;20346;-77
2022/05/31 14:23:06;;;;;;;2.67;0.80;;;;;;;;;;5043053;28;20242;-78
2022/05/31 14:25:34;;;;;;;2.38;1.10;;;;;;;;;;5072060;28;20214;-78
2022/05/31 14:28:02;;;;;;;3.55;0.95;;;;;;;;;;5071490;28;20235;-78
2022/05/31 14:30:30;;;;;;;2.40;1.13;;;;;;;;;;5066908;28;20207;-78
2022/05/31 14:33:01;;;;;;;6.10;0.90;;;;;;;;;;5031517;28;20295;-78
2022/05/31 14:35:31;;;;;;;3.70;1.10;;;;;;;;;;5031538;28;20656;-78
2022/05/31 14:37:58;;;;;;;2.65;1.05;;;;;;;;;;5031644;28;20200;-78
2022/05/31 14:40:27;;;;;;;1.98;1.10;;;;;;;;;;5042474;28;20230;-77
2022/05/31 14:42:57;;;;;;;1.50;1.10;;;;;;;;;;5051732;28;20206;-77
2022/05/31 14:45:29;;;;;;;2.47;0.90;;;;;;;;;;5050888;28;20267;-77
2022/05/31 14:47:56;;;;;;;2.10;1.20;;;;;;;;;;5051433;28;20231;-78
2022/05/31 14:50:26;;;;;;;1.35;0.95;;;;;;;;;;5055082;28;20235;-77
2022/05/31 14:52:54;;;;;;;2.05;0.85;;;;;;;;;;5054965;28;20235;-77
2022/05/31 14:55:27;;;;;;;1.80;0.90;;;;;;;;;;5054893;28;20223;-77
2022/05/31 15:00:51;;;;;;;2.13;0.88;;;;;;;;;;5055093;28;20198;-77
2022/05/31 15:03:26;;;;;;;1.88;0.85;;;;;;;;;;5055228;28;20286;-78
2022/05/31 15:05:57;;;;;;;1.52;1.02;;;;;;;;;;5064846;28;20207;-78
2022/05/31 15:08:31;;;;;;;2.33;0.90;;;;;;;;;;5074766;28;20234;-78
2022/05/31 15:18:56;;;;;;;2.58;0.98;;;;;;;;;;5056820;28;20610;-78
2022/05/31 15:19:31;;;;;;;3.08;0.90;;;;;;;;;;5074780;28;20190;-78
2022/05/31 15:21:58;;;;;;;1.92;0.80;;;;;;;;;;5074708;28;20260;-78
2022/05/31 15:24:28;;;;;;;1.73;0.80;;;;;;;;;;5071657;28;20228;-78
2022/05/31 15:26:55;;;;;;;1.95;0.88;;;;;;;;;;5054743;28;20239;-77
2022/05/31 15:29:24;;;;;;;1.90;0.85;;;;;;;;;;5043600;28;20239;-77
2022/05/31 15:31:51;;;;;;;2.35;0.73;;;;;;;;;;5054513;28;20277;-77
2022/05/31 15:34:19;;;;;;;2.55;1.00;;;;;;;;;;5054765;28;20323;-78
2022/05/31 15:36:46;;;;;;;1.75;0.77;;;;;;;;;;5054064;28;20203;-78
2022/05/31 15:39:16;;;;;;;1.45;0.70;;;;;;;;;;5049073;28;20706;-78
2022/05/31 15:41:43;;;;;;;2.40;0.90;;;;;;;;;;5050209;28;20223;-78
2022/05/31 15:44:10;;;;;;;1.52;0.90;;;;;;;;;;5052820;28;20259;-77